createdAt,value
2017-06-17T00:01:24.677Z,13.50
2017-06-17T00:03:53.943Z,13.60
2017-06-17T00:06:22.790Z,13.50
2017-06-17T00:08:51.350Z,13.60
2017-06-17T00:11:20.022Z,13.60
2017-06-17T00:13:48.510Z,13.60
2017-06-17T00:16:17.229Z,13.50
2017-06-17T00:18:46.512Z,13.50
2017-06-17T00:21:15.018Z,13.40
2017-06-17T00:23:45.072Z,13.50
2017-06-17T00:26:13.595Z,13.50
2017-06-17T00:28:42.257Z,13.50
2017-06-17T00:31:10.967Z,13.40
2017-06-17T00:33:39.472Z,13.40
2017-06-17T00:36:08.774Z,13.40
2017-06-17T00:38:38.263Z,13.40
2017-06-17T00:41:07.725Z,13.30
2017-06-17T00:43:36.211Z,13.20
2017-06-17T00:46:05.343Z,13.30
2017-06-17T00:48:33.823Z,13.40
2017-06-17T00:51:02.461Z,13.40
2017-06-17T00:53:30.973Z,13.40
2017-06-17T00:55:59.498Z,13.40
2017-06-17T00:58:28.779Z,13.50
2017-06-17T01:00:57.693Z,13.40
2017-06-17T01:03:30.221Z,13.50
2017-06-17T01:05:58.744Z,13.40
2017-06-17T01:08:28.653Z,13.50
2017-06-17T01:10:57.900Z,13.40
2017-06-17T01:13:26.454Z,13.30
2017-06-17T01:15:55.760Z,13.40
2017-06-17T01:18:25.056Z,13.30
2017-06-17T01:20:54.521Z,13.30
2017-06-17T01:23:22.990Z,13.20
2017-06-17T01:25:51.489Z,13.30
2017-06-17T01:28:19.966Z,13.40
2017-06-17T01:30:48.473Z,13.30
2017-06-17T01:33:17.437Z,13.30
2017-06-17T01:35:45.999Z,13.30
2017-06-17T01:38:14.502Z,13.40
2017-06-17T01:40:43.514Z,13.30
2017-06-17T01:43:12.197Z,13.30
2017-06-17T01:45:40.820Z,13.30
2017-06-17T01:48:10.287Z,13.30
2017-06-17T01:50:38.993Z,13.20
2017-06-17T01:53:07.547Z,13.20
2017-06-17T01:55:36.158Z,13.20
2017-06-17T01:58:06.306Z,13.20
2017-06-17T02:00:35.537Z,13.10
2017-06-17T02:03:04.080Z,13.10
2017-06-17T02:05:33.597Z,13.00
2017-06-17T02:08:02.898Z,13.00
2017-06-17T02:10:32.180Z,13.00
2017-06-17T02:13:00.817Z,13.00
2017-06-17T02:15:29.761Z,13.00
2017-06-17T02:17:58.464Z,12.90
2017-06-17T02:20:29.026Z,12.80
2017-06-17T02:22:57.636Z,12.70
2017-06-17T02:25:26.111Z,12.90
2017-06-17T02:27:54.629Z,12.80
2017-06-17T02:30:23.334Z,12.80
2017-06-17T02:32:52.568Z,12.80
2017-06-17T02:35:21.119Z,12.70
2017-06-17T02:37:50.994Z,12.70
2017-06-17T02:40:19.662Z,12.60
2017-06-17T02:42:48.228Z,12.70
2017-06-17T02:45:16.926Z,12.60
2017-06-17T02:47:45.382Z,12.60
2017-06-17T02:50:13.878Z,12.60
2017-06-17T02:52:42.489Z,12.60
2017-06-17T02:55:11.443Z,12.60
2017-06-17T02:57:40.121Z,12.60
2017-06-17T03:00:09.373Z,12.50
2017-06-17T03:02:37.897Z,12.50
2017-06-17T03:05:07.208Z,12.50
2017-06-17T03:07:36.409Z,12.50
2017-06-17T03:10:05.530Z,12.50
2017-06-17T03:12:34.030Z,12.50
2017-06-17T03:15:02.544Z,12.60
2017-06-17T03:17:31.206Z,12.60
2017-06-17T03:19:59.698Z,12.60
2017-06-17T03:22:28.199Z,12.60
2017-06-17T03:24:56.683Z,12.60
2017-06-17T03:27:25.393Z,12.60
2017-06-17T03:29:54.692Z,12.60
2017-06-17T03:32:24.564Z,12.80
2017-06-17T03:34:53.091Z,12.70
2017-06-17T03:37:22.348Z,12.80
2017-06-17T03:39:50.874Z,12.70
2017-06-17T03:42:20.152Z,12.80
2017-06-17T03:44:48.868Z,12.70
2017-06-17T03:47:18.135Z,12.80
2017-06-17T03:49:46.614Z,12.70
2017-06-17T03:52:15.715Z,12.80
2017-06-17T03:54:44.433Z,12.80
2017-06-17T03:57:13.695Z,12.80
2017-06-17T03:59:42.402Z,12.70
2017-06-17T04:02:10.905Z,12.80
2017-06-17T04:04:39.774Z,12.90
2017-06-17T04:07:08.254Z,12.90
2017-06-17T04:09:36.759Z,12.90
2017-06-17T04:12:06.651Z,13.00
2017-06-17T04:14:35.160Z,12.90
2017-06-17T04:17:03.773Z,13.00
2017-06-17T04:19:32.296Z,13.10
2017-06-17T04:22:00.847Z,13.20
2017-06-17T04:24:29.358Z,13.10
2017-06-17T04:26:58.322Z,13.10
2017-06-17T04:29:26.794Z,13.20
2017-06-17T04:31:56.150Z,13.20
2017-06-17T04:34:24.643Z,13.30
2017-06-17T04:36:53.129Z,13.30
2017-06-17T04:39:22.439Z,13.40
2017-06-17T04:41:51.741Z,13.50
2017-06-17T04:44:21.554Z,13.50
2017-06-17T04:46:50.119Z,13.40
2017-06-17T04:49:19.031Z,13.60
2017-06-17T04:51:48.278Z,13.80
2017-06-17T04:54:16.790Z,13.70
2017-06-17T04:56:45.477Z,13.90
2017-06-17T04:59:13.983Z,14.20
2017-06-17T05:01:43.226Z,14.80
2017-06-17T05:04:12.949Z,14.70
2017-06-17T05:06:41.445Z,15.00
2017-06-17T05:09:09.961Z,15.20
2017-06-17T05:11:39.831Z,15.80
2017-06-17T05:14:08.565Z,15.80
2017-06-17T05:16:37.818Z,16.30
2017-06-17T05:19:06.525Z,16.30
2017-06-17T05:21:35.183Z,16.50
2017-06-17T05:24:03.731Z,16.90
2017-06-17T05:26:32.465Z,17.10
2017-06-17T05:29:01.155Z,16.90
2017-06-17T05:31:31.053Z,17.20
2017-06-17T05:33:59.573Z,17.70
2017-06-17T05:36:28.094Z,17.90
2017-06-17T05:38:56.665Z,17.50
2017-06-17T05:41:25.902Z,17.00
2017-06-17T05:43:54.449Z,17.00
2017-06-17T05:46:24.323Z,16.40
2017-06-17T05:48:53.054Z,16.40
2017-06-17T05:51:22.547Z,16.00
2017-06-17T05:53:51.028Z,15.90
2017-06-17T05:56:21.654Z,15.90
2017-06-17T05:58:50.154Z,15.90
2017-06-17T06:01:18.693Z,15.90
2017-06-17T06:03:48.165Z,15.80
2017-06-17T06:06:16.938Z,15.70
2017-06-17T06:08:46.177Z,15.70
2017-06-17T06:11:14.658Z,15.70
2017-06-17T06:13:43.823Z,15.70
2017-06-17T06:16:13.122Z,15.90
2017-06-17T06:18:42.473Z,16.00
2017-06-17T06:21:11.315Z,15.90
2017-06-17T06:23:40.666Z,16.20
2017-06-17T06:26:09.204Z,16.20
2017-06-17T06:28:37.935Z,16.30
2017-06-17T06:31:06.605Z,16.30
2017-06-17T06:33:35.286Z,16.60
2017-06-17T06:36:03.820Z,16.80
2017-06-17T06:38:32.926Z,17.00
2017-06-17T06:41:09.182Z,17.00
2017-06-17T06:43:37.709Z,16.90
2017-06-17T06:46:06.379Z,17.10
2017-06-17T06:48:35.093Z,17.30
2017-06-17T06:51:04.178Z,17.10
2017-06-17T06:53:32.774Z,17.10
2017-06-17T06:56:01.332Z,17.50
2017-06-17T06:58:30.629Z,17.10
2017-06-17T07:00:59.898Z,16.80
2017-06-17T07:03:28.377Z,16.80
2017-06-17T07:05:57.086Z,17.10
2017-06-17T07:08:26.450Z,18.60
2017-06-17T07:10:55.070Z,18.60
2017-06-17T07:13:24.786Z,18.60
2017-06-17T07:15:54.238Z,18.30
2017-06-17T07:18:24.123Z,18.20
2017-06-17T07:20:53.420Z,18.60
2017-06-17T07:23:22.724Z,18.50
2017-06-17T07:25:52.127Z,18.90
2017-06-17T07:28:21.098Z,18.80
2017-06-17T07:30:49.821Z,18.90
2017-06-17T07:33:18.329Z,18.70
2017-06-17T07:35:47.034Z,18.20
2017-06-17T07:38:15.664Z,18.70
2017-06-17T07:40:45.528Z,20.70
2017-06-17T07:43:14.177Z,20.60
2017-06-17T07:45:43.139Z,21.30
2017-06-17T07:48:11.795Z,21.50
2017-06-17T07:50:40.318Z,21.90
2017-06-17T07:53:09.634Z,22.50
2017-06-17T07:55:38.916Z,21.90
2017-06-17T07:58:08.014Z,21.80
2017-06-17T08:00:37.536Z,22.00
2017-06-17T08:03:07.570Z,22.50
2017-06-17T08:05:36.122Z,22.40
2017-06-17T08:08:05.644Z,22.20
2017-06-17T08:10:35.110Z,22.80
2017-06-17T08:13:03.778Z,22.80
2017-06-17T08:15:32.778Z,23.50
2017-06-17T08:18:01.511Z,24.00
2017-06-17T08:20:30.065Z,23.80
2017-06-17T08:22:59.540Z,23.80
2017-06-17T08:25:28.797Z,22.70
2017-06-17T08:27:58.450Z,23.50
2017-06-17T08:30:26.971Z,23.40
2017-06-17T08:32:55.690Z,23.40
2017-06-17T08:35:25.552Z,24.10
2017-06-17T08:37:54.280Z,24.00
2017-06-17T08:40:23.598Z,24.50
2017-06-17T08:42:52.280Z,24.40
2017-06-17T08:45:21.741Z,24.00
2017-06-17T08:47:51.050Z,24.00
2017-06-17T08:50:20.246Z,23.50
2017-06-17T08:52:48.817Z,23.40
2017-06-17T08:55:17.556Z,23.50
2017-06-17T08:57:46.917Z,23.70
2017-06-17T09:00:15.752Z,23.70
2017-06-17T09:02:44.137Z,23.60
2017-06-17T09:05:12.086Z,23.80
2017-06-17T09:07:41.403Z,23.20
2017-06-17T09:10:10.960Z,22.60
2017-06-17T09:12:39.818Z,22.50
2017-06-17T09:15:09.715Z,22.70
2017-06-17T09:17:39.203Z,23.70
2017-06-17T09:20:08.123Z,23.60
2017-06-17T09:22:36.774Z,23.70
2017-06-17T09:25:05.653Z,23.90
2017-06-17T09:27:34.150Z,24.50
2017-06-17T09:30:02.861Z,24.20
2017-06-17T09:32:32.585Z,24.00
2017-06-17T09:35:02.079Z,23.90
2017-06-17T09:37:31.380Z,23.70
2017-06-17T09:40:00.645Z,23.50
2017-06-17T09:42:29.315Z,23.40
2017-06-17T09:44:57.830Z,23.80
2017-06-17T09:47:26.515Z,24.20
2017-06-17T09:49:55.003Z,25.10
2017-06-17T09:52:24.181Z,24.90
2017-06-17T09:54:52.972Z,25.00
2017-06-17T09:57:21.577Z,24.90
2017-06-17T09:59:50.157Z,25.00
2017-06-17T10:02:19.681Z,24.80
2017-06-17T10:04:48.966Z,24.60
2017-06-17T10:07:17.607Z,25.20
2017-06-17T10:09:45.528Z,25.20
2017-06-17T10:12:15.406Z,25.70
2017-06-17T10:14:43.505Z,25.70
2017-06-17T10:17:12.213Z,25.70
2017-06-17T10:19:41.511Z,24.30
2017-06-17T10:22:10.778Z,24.50
2017-06-17T10:24:39.358Z,24.40
2017-06-17T10:27:07.873Z,25.20
2017-06-17T10:29:36.390Z,25.30
2017-06-17T10:32:05.152Z,24.70
2017-06-17T10:34:35.029Z,24.70
2017-06-17T10:37:03.845Z,24.60
2017-06-17T10:39:33.138Z,25.50
2017-06-17T10:42:01.823Z,25.40
2017-06-17T10:44:30.780Z,25.80
2017-06-17T10:47:01.864Z,25.90
2017-06-17T10:49:29.801Z,26.30
2017-06-17T10:51:58.176Z,26.60
2017-06-17T10:54:27.875Z,25.90
2017-06-17T10:56:55.775Z,26.40
2017-06-17T10:59:23.935Z,26.70
2017-06-17T11:01:52.775Z,26.50
2017-06-17T11:04:22.020Z,25.10
2017-06-17T11:06:50.967Z,25.00
2017-06-17T11:09:20.440Z,25.70
2017-06-17T11:11:48.730Z,25.60
2017-06-17T11:14:16.989Z,26.10
2017-06-17T11:16:44.893Z,26.70
2017-06-17T11:19:13.861Z,27.20
2017-06-17T11:21:42.065Z,27.20
2017-06-17T11:24:10.749Z,26.50
2017-06-17T11:26:39.386Z,27.10
2017-06-17T11:29:07.279Z,27.00
2017-06-17T11:31:35.355Z,26.90
2017-06-17T11:34:09.162Z,26.30
2017-06-17T11:36:37.402Z,26.90
2017-06-17T11:39:06.044Z,27.20
2017-06-17T11:41:34.714Z,26.60
2017-06-17T11:44:02.804Z,26.60
2017-06-17T11:46:30.774Z,27.10
2017-06-17T11:48:59.446Z,27.20
2017-06-17T11:51:27.515Z,27.10
2017-06-17T11:53:55.811Z,27.80
2017-06-17T11:56:24.887Z,28.10
2017-06-17T11:58:53.489Z,28.10
2017-06-17T12:01:22.491Z,28.30
2017-06-17T12:03:51.143Z,27.30
2017-06-17T12:06:19.401Z,27.20
2017-06-17T12:08:47.690Z,26.80
2017-06-17T12:11:15.806Z,26.60
2017-06-17T12:13:43.933Z,27.20
2017-06-17T12:16:12.088Z,27.20
2017-06-17T12:18:40.046Z,27.40
2017-06-17T12:21:08.045Z,27.80
2017-06-17T12:23:36.570Z,28.00
2017-06-17T12:26:05.462Z,28.60
2017-06-17T12:28:34.127Z,28.30
2017-06-17T12:31:02.789Z,28.30
2017-06-17T12:33:30.701Z,27.80
2017-06-17T12:35:59.355Z,27.40
2017-06-17T12:38:27.284Z,27.30
2017-06-17T12:40:55.681Z,27.80
2017-06-17T12:43:23.814Z,27.40
2017-06-17T12:45:54.346Z,27.90
2017-06-17T12:48:31.956Z,28.30
2017-06-17T12:51:00.113Z,28.30
2017-06-17T12:53:28.797Z,28.40
2017-06-17T12:55:57.694Z,28.20
2017-06-17T12:58:26.807Z,28.40
2017-06-17T13:00:54.718Z,28.40
2017-06-17T13:03:22.682Z,28.20
2017-06-17T13:05:51.355Z,28.00
2017-06-17T13:10:56.766Z,28.00
2017-06-17T13:13:25.641Z,28.10
2017-06-17T13:15:55.223Z,28.00
2017-06-17T13:18:23.655Z,27.90
2017-06-17T13:20:52.906Z,26.90
2017-06-17T13:23:21.398Z,26.80
2017-06-17T13:25:50.109Z,26.80
2017-06-17T13:28:18.770Z,26.60
2017-06-17T13:30:47.497Z,26.00
2017-06-17T13:33:16.792Z,25.50
2017-06-17T13:35:46.045Z,25.10
2017-06-17T13:38:14.785Z,25.00
2017-06-17T13:40:44.292Z,24.70
2017-06-17T13:43:14.150Z,24.80
2017-06-17T13:45:42.881Z,24.80
2017-06-17T13:48:12.346Z,24.80
2017-06-17T13:50:41.090Z,24.70
2017-06-17T13:53:10.599Z,24.40
2017-06-17T13:55:40.031Z,24.00
2017-06-17T13:58:08.769Z,23.90
2017-06-17T14:00:38.690Z,23.80
2017-06-17T14:03:07.774Z,23.80
2017-06-17T14:05:36.327Z,23.80
2017-06-17T14:08:06.164Z,23.40
2017-06-17T14:10:34.719Z,22.90
2017-06-17T14:13:03.640Z,23.10
2017-06-17T14:15:32.449Z,23.50
2017-06-17T14:18:01.766Z,23.90
2017-06-17T14:20:31.688Z,23.70
2017-06-17T14:23:00.525Z,23.60
2017-06-17T14:25:29.547Z,23.50
2017-06-17T14:27:58.153Z,23.30
2017-06-17T14:30:27.681Z,22.90
2017-06-17T14:32:56.386Z,22.80
2017-06-17T14:35:25.196Z,22.60
2017-06-17T14:37:54.186Z,22.50
2017-06-17T14:40:22.929Z,22.50
2017-06-17T14:42:51.638Z,22.30
2017-06-17T14:45:20.396Z,22.30
2017-06-17T14:47:49.824Z,22.40
2017-06-17T14:50:18.835Z,22.30
2017-06-17T14:52:47.437Z,22.10
2017-06-17T14:55:16.063Z,22.20
2017-06-17T14:57:49.964Z,22.30
2017-06-17T15:00:23.639Z,22.20
2017-06-17T15:02:52.524Z,22.10
2017-06-17T15:05:21.417Z,22.10
2017-06-17T15:07:50.851Z,21.90
2017-06-17T15:10:20.372Z,21.60
2017-06-17T15:12:50.519Z,21.50
2017-06-17T15:15:19.596Z,21.40
2017-06-17T15:17:51.348Z,21.50
2017-06-17T15:20:21.737Z,21.20
2017-06-17T15:22:50.602Z,21.10
2017-06-17T15:25:19.562Z,21.40
2017-06-17T15:27:49.453Z,21.40
2017-06-17T15:30:18.149Z,21.40
2017-06-17T15:32:46.727Z,21.20
2017-06-17T15:35:15.582Z,21.40
2017-06-17T15:37:44.412Z,21.40
2017-06-17T15:40:13.693Z,21.40
2017-06-17T15:42:42.426Z,21.30
2017-06-17T15:45:11.054Z,21.30
2017-06-17T15:47:39.771Z,21.20
2017-06-17T15:50:08.648Z,21.30
2017-06-17T15:52:37.241Z,21.40
2017-06-17T15:55:07.041Z,21.20
2017-06-17T15:57:35.767Z,21.20
2017-06-17T16:00:05.127Z,20.70
2017-06-17T16:02:34.605Z,20.60
2017-06-17T16:05:03.223Z,20.80
2017-06-17T16:07:31.738Z,20.80
2017-06-17T16:10:01.177Z,21.00
2017-06-17T16:12:30.709Z,20.90
2017-06-17T16:14:59.445Z,21.10
2017-06-17T16:17:28.898Z,20.70
2017-06-17T16:19:57.425Z,20.60
2017-06-17T16:22:25.962Z,20.50
2017-06-17T16:24:54.485Z,20.60
2017-06-17T16:27:24.219Z,20.70
2017-06-17T16:29:52.798Z,20.60
2017-06-17T16:32:22.094Z,20.80
2017-06-17T16:34:51.578Z,20.70
2017-06-17T16:37:20.090Z,20.60
2017-06-17T16:39:48.653Z,20.50
2017-06-17T16:42:17.146Z,20.40
2017-06-17T16:44:46.678Z,20.20
2017-06-17T16:47:15.191Z,20.20
2017-06-17T16:49:43.706Z,20.10
2017-06-17T16:52:12.229Z,19.90
2017-06-17T16:54:41.201Z,20.00
2017-06-17T16:57:11.089Z,19.80
2017-06-17T16:59:39.665Z,19.70
2017-06-17T17:02:08.170Z,19.80
2017-06-17T17:04:36.742Z,19.80
2017-06-17T17:07:05.300Z,19.80
2017-06-17T17:09:34.551Z,19.70
2017-06-17T17:12:04.038Z,19.50
2017-06-17T17:14:32.730Z,19.40
2017-06-17T17:17:01.314Z,19.40
2017-06-17T17:19:29.783Z,19.40
2017-06-17T17:21:58.326Z,19.50
2017-06-17T17:24:27.426Z,19.40
2017-06-17T17:26:55.986Z,19.40
2017-06-17T17:29:24.621Z,19.50
2017-06-17T17:31:53.166Z,19.40
2017-06-17T17:34:22.298Z,19.40
2017-06-17T17:36:50.873Z,19.30
2017-06-17T17:39:19.409Z,19.30
2017-06-17T17:41:48.893Z,19.40
2017-06-17T17:44:18.014Z,19.40
2017-06-17T17:46:47.402Z,19.40
2017-06-17T17:49:15.977Z,19.30
2017-06-17T17:51:45.262Z,19.40
2017-06-17T17:54:14.355Z,19.40
2017-06-17T17:56:42.830Z,19.40
2017-06-17T17:59:11.466Z,19.40
2017-06-17T18:01:40.818Z,19.50
2017-06-17T18:04:10.078Z,19.40
2017-06-17T18:06:38.739Z,19.40
2017-06-17T18:09:07.261Z,19.20
2017-06-17T18:11:36.279Z,19.20
2017-06-17T18:14:05.022Z,19.30
2017-06-17T18:16:34.252Z,19.20
2017-06-17T18:19:03.070Z,19.10
2017-06-17T18:21:31.702Z,19.20
2017-06-17T18:24:00.851Z,19.30
2017-06-17T18:26:29.339Z,19.20
2017-06-17T18:28:58.069Z,19.20
2017-06-17T18:31:27.523Z,19.20
2017-06-17T18:33:56.021Z,19.20
2017-06-17T18:36:26.125Z,19.20
2017-06-17T18:38:54.816Z,19.20
2017-06-17T18:41:23.701Z,19.20
2017-06-17T18:43:52.294Z,19.10
2017-06-17T18:46:21.180Z,19.00
2017-06-17T18:48:50.384Z,19.00
2017-06-17T18:51:18.866Z,18.90
2017-06-17T18:53:47.397Z,18.80
2017-06-17T18:56:17.310Z,18.70
2017-06-17T18:58:46.782Z,18.70
2017-06-17T19:01:15.709Z,18.70
2017-06-17T19:03:45.227Z,18.60
2017-06-17T19:06:13.881Z,18.50
2017-06-17T19:08:42.568Z,18.60
2017-06-17T19:11:11.276Z,18.60
2017-06-17T19:13:40.565Z,18.50
2017-06-17T19:16:09.972Z,18.40
2017-06-17T19:18:39.180Z,18.40
2017-06-17T19:21:08.687Z,18.40
2017-06-17T19:23:38.194Z,18.20
2017-06-17T19:26:07.966Z,18.20
2017-06-17T19:28:37.648Z,18.10
2017-06-17T19:31:06.717Z,18.10
2017-06-17T19:33:35.999Z,18.00
2017-06-17T19:36:05.250Z,17.90
2017-06-17T19:38:34.053Z,17.80
2017-06-17T19:41:02.791Z,17.90
2017-06-17T19:43:31.354Z,17.90
2017-06-17T19:45:59.894Z,17.80
2017-06-17T19:48:28.461Z,17.80
2017-06-17T19:50:57.212Z,17.70
2017-06-17T19:53:25.816Z,17.60
2017-06-17T19:55:54.331Z,17.50
2017-06-17T19:58:23.293Z,17.60
2017-06-17T20:00:52.748Z,17.40
2017-06-17T20:03:21.465Z,17.40
2017-06-17T20:05:49.986Z,17.40
2017-06-17T20:08:18.551Z,17.30
2017-06-17T20:10:47.344Z,17.30
2017-06-17T20:13:16.629Z,17.20
2017-06-17T20:15:46.109Z,17.10
2017-06-17T20:18:15.244Z,17.10
2017-06-17T20:20:49.217Z,17.00
2017-06-17T20:23:19.054Z,16.80
2017-06-17T20:25:47.609Z,16.90
2017-06-17T20:28:16.550Z,16.80
2017-06-17T20:30:46.005Z,16.80
2017-06-17T20:33:14.530Z,16.70
2017-06-17T20:35:43.166Z,16.80
2017-06-17T20:38:12.197Z,16.80
2017-06-17T20:40:40.761Z,16.70
2017-06-17T20:43:09.500Z,16.70
2017-06-17T20:45:38.275Z,16.70
2017-06-17T20:48:06.928Z,16.70
2017-06-17T21:03:51.332Z,16.70
2017-06-17T21:06:19.918Z,16.80
2017-06-17T21:08:48.691Z,16.70
2017-06-17T21:11:18.819Z,16.80
2017-06-17T21:13:48.369Z,16.80
2017-06-17T21:16:16.946Z,16.80
2017-06-17T21:18:46.341Z,16.80
2017-06-17T21:21:15.192Z,16.80
2017-06-17T21:23:44.938Z,16.80
2017-06-17T21:26:13.464Z,16.70
2017-06-17T21:28:42.058Z,16.80
2017-06-17T21:31:10.675Z,16.70
2017-06-17T21:33:39.200Z,16.80
2017-06-17T21:36:07.888Z,16.80
2017-06-17T21:38:36.434Z,16.80
2017-06-17T21:41:05.110Z,16.80
2017-06-17T21:43:33.805Z,16.70
2017-06-17T21:46:02.355Z,16.70
2017-06-17T21:48:31.419Z,16.70
2017-06-17T21:50:59.924Z,16.60
2017-06-17T21:53:40.850Z,16.60
2017-06-17T21:56:09.393Z,16.60
2017-06-17T21:58:38.209Z,16.60
2017-06-17T22:01:06.745Z,16.50
2017-06-17T22:03:35.278Z,16.50
2017-06-17T22:06:08.450Z,16.50
2017-06-17T22:08:37.182Z,16.50
2017-06-17T22:11:05.843Z,16.40
2017-06-17T22:13:34.396Z,16.30
2017-06-17T22:16:02.914Z,16.30
2017-06-17T22:18:31.446Z,16.30
2017-06-17T22:20:59.972Z,16.30
2017-06-17T22:23:28.818Z,16.30
2017-06-17T22:25:57.553Z,16.20
2017-06-17T22:28:26.053Z,16.20
2017-06-17T22:50:02.495Z,16.30
2017-06-17T22:52:31.103Z,16.10
2017-06-17T22:54:59.649Z,16.00
2017-06-17T22:57:28.169Z,16.00
2017-06-17T22:59:56.954Z,15.90
2017-06-17T23:02:25.842Z,15.80
2017-06-17T23:04:54.314Z,15.80
2017-06-17T23:07:23.010Z,15.80
2017-06-17T23:09:51.509Z,15.70
2017-06-17T23:12:21.218Z,15.60
2017-06-17T23:14:50.502Z,15.50
2017-06-17T23:17:19.017Z,15.50
2017-06-17T23:19:48.367Z,15.50
2017-06-17T23:22:16.854Z,15.40
2017-06-17T23:24:45.433Z,15.40
2017-06-17T23:27:14.150Z,15.40
2017-06-17T23:29:42.643Z,15.30
2017-06-17T23:32:11.955Z,15.30
2017-06-17T23:34:41.209Z,15.30
2017-06-17T23:37:09.975Z,15.20
2017-06-17T23:39:38.482Z,15.20
2017-06-17T23:42:06.981Z,15.20
2017-06-17T23:44:35.543Z,15.10
2017-06-17T23:47:04.060Z,15.10
2017-06-17T23:49:32.768Z,15.10
2017-06-17T23:52:02.022Z,15.20
2017-06-17T23:54:30.493Z,15.10
2017-06-17T23:56:58.984Z,15.20
2017-06-17T23:59:27.922Z,15.20
